createdAt,value
2022-10-06T00:00:58.158Z,26.42
2022-10-06T00:03:45.429Z,24.92
2022-10-06T00:06:21.512Z,22.40
2022-10-06T00:09:08.409Z,23.17
2022-10-06T00:11:41.775Z,24.42
2022-10-06T00:14:28.437Z,24.70
2022-10-06T00:17:01.506Z,29.30
2022-10-06T00:19:48.413Z,24.75
2022-10-06T00:22:21.480Z,22.08
2022-10-06T00:25:08.412Z,24.77
2022-10-06T00:27:43.478Z,24.35
2022-10-06T00:30:32.455Z,23.83
2022-10-06T00:33:15.421Z,24.67
2022-10-06T00:36:07.434Z,24.25
2022-10-06T00:38:48.427Z,22.52
2022-10-06T00:41:35.411Z,26.67
2022-10-06T00:44:15.445Z,24.48
2022-10-06T00:47:09.428Z,23.63
2022-10-06T00:50:04.423Z,25.38
2022-10-06T00:52:51.430Z,21.67
2022-10-06T00:55:31.663Z,21.25
2022-10-06T00:58:20.434Z,23.88
2022-10-06T01:01:02.448Z,22.95
2022-10-06T01:04:04.433Z,21.98
2022-10-06T01:07:02.453Z,22.58
2022-10-06T01:09:56.458Z,21.08
2022-10-06T01:12:50.456Z,20.13
2022-10-06T01:15:37.524Z,22.25
2022-10-06T01:18:17.759Z,22.42
2022-10-06T01:21:16.474Z,22.08
2022-10-06T01:23:50.072Z,22.20
2022-10-06T01:26:39.437Z,20.20
2022-10-06T01:29:12.533Z,19.48
2022-10-06T01:31:59.465Z,21.00
2022-10-06T01:34:32.556Z,21.10
2022-10-06T01:37:19.454Z,21.67
2022-10-06T01:39:52.657Z,21.23
2022-10-06T01:42:40.470Z,22.05
2022-10-06T01:45:14.511Z,22.30
2022-10-06T01:48:01.479Z,20.67
2022-10-06T01:50:34.582Z,21.50
2022-10-06T01:53:21.431Z,26.42
2022-10-06T01:55:54.534Z,24.27
2022-10-06T01:58:41.451Z,23.65
2022-10-06T02:01:22.514Z,25.75
2022-10-06T02:04:16.525Z,21.83
2022-10-06T02:07:10.511Z,23.77
2022-10-06T02:10:04.476Z,31.25
2022-10-06T02:12:51.465Z,23.90
2022-10-06T02:15:26.931Z,22.65
2022-10-06T02:18:13.472Z,20.98
2022-10-06T02:20:53.488Z,22.42
2022-10-06T02:23:47.468Z,19.73
2022-10-06T02:26:41.486Z,21.90
2022-10-06T02:29:35.480Z,31.00
2022-10-06T02:32:22.475Z,22.10
2022-10-06T02:35:02.464Z,23.02
2022-10-06T02:37:56.460Z,24.55
2022-10-06T02:40:43.499Z,20.85
2022-10-06T02:43:16.581Z,31.50
2022-10-06T02:46:05.540Z,20.77
2022-10-06T02:48:42.322Z,32.70
2022-10-06T02:51:29.478Z,43.55
2022-10-06T02:54:09.490Z,25.38
2022-10-06T02:57:03.463Z,32.22
2022-10-06T02:59:50.506Z,27.35
2022-10-06T03:02:30.618Z,21.98
2022-10-06T03:05:17.502Z,20.05
2022-10-06T03:07:57.496Z,21.63
2022-10-06T03:10:44.500Z,20.20
2022-10-06T03:13:17.570Z,20.23
2022-10-06T03:16:04.522Z,20.30
2022-10-06T03:18:37.575Z,20.90
2022-10-06T03:21:25.506Z,20.50
2022-10-06T03:23:59.568Z,21.40
2022-10-06T03:26:48.505Z,19.85
2022-10-06T03:29:28.478Z,20.65
2022-10-06T03:32:15.523Z,20.20
2022-10-06T03:34:48.570Z,21.35
2022-10-06T03:37:35.485Z,19.35
2022-10-06T03:40:08.609Z,18.20
2022-10-06T03:42:55.489Z,19.83
2022-10-06T03:45:35.535Z,41.03
2022-10-06T03:48:29.777Z,22.50
2022-10-06T03:51:45.500Z,27.52
2022-10-06T03:54:32.509Z,54.72
2022-10-06T03:57:05.624Z,19.13
2022-10-06T03:59:52.611Z,19.65
2022-10-06T04:02:33.616Z,27.17
2022-10-06T04:05:20.554Z,31.63
2022-10-06T04:08:00.495Z,28.27
2022-10-06T04:10:47.536Z,17.48
2022-10-06T04:13:23.592Z,18.67
2022-10-06T04:16:24.642Z,25.27
2022-10-06T04:19:00.608Z,27.67
2022-10-06T04:21:49.531Z,22.75
2022-10-06T04:24:22.616Z,21.15
2022-10-06T04:27:28.537Z,25.20
2022-10-06T04:30:08.543Z,20.33
2022-10-06T04:32:55.526Z,19.52
2022-10-06T04:35:28.594Z,24.95
2022-10-06T04:38:15.540Z,15.10
2022-10-06T04:40:55.522Z,24.13
2022-10-06T04:43:42.545Z,18.90
2022-10-06T04:46:41.481Z,28.75
2022-10-06T04:49:23.541Z,30.17
2022-10-06T04:51:56.604Z,18.38
2022-10-06T04:54:43.519Z,21.52
2022-10-06T04:57:16.657Z,16.95
2022-10-06T05:00:21.520Z,16.60
2022-10-06T05:02:55.932Z,18.55
2022-10-06T05:05:42.541Z,19.55
2022-10-06T05:08:22.529Z,20.70
2022-10-06T05:11:22.481Z,18.95
2022-10-06T05:14:11.516Z,17.60
2022-10-06T05:16:51.605Z,16.25
2022-10-06T05:19:38.552Z,18.55
2022-10-06T05:22:11.631Z,27.83
2022-10-06T05:25:00.542Z,23.40
2022-10-06T05:27:40.537Z,20.70
2022-10-06T05:30:27.549Z,21.80
2022-10-06T05:33:07.542Z,20.00
2022-10-06T05:36:15.603Z,22.05
2022-10-06T05:38:49.635Z,22.25
2022-10-06T05:41:38.554Z,20.35
2022-10-06T05:44:18.557Z,22.50
2022-10-06T05:47:12.546Z,25.23
2022-10-06T05:49:59.604Z,24.58
2022-10-06T05:52:32.877Z,28.95
2022-10-06T05:55:19.559Z,30.80
2022-10-06T05:57:59.545Z,24.83
2022-10-06T06:00:46.542Z,22.02
2022-10-06T06:03:19.634Z,20.13
2022-10-06T06:06:06.557Z,23.02
2022-10-06T06:09:01.596Z,22.75
2022-10-06T06:11:51.563Z,23.08
2022-10-06T06:14:53.588Z,21.98
2022-10-06T06:17:47.580Z,23.48
2022-10-06T06:20:41.588Z,22.15
2022-10-06T06:23:28.564Z,20.55
2022-10-06T06:26:13.550Z,25.27
2022-10-06T06:29:02.601Z,22.30
2022-10-06T06:31:37.745Z,25.40
2022-10-06T06:34:24.599Z,25.95
2022-10-06T06:37:06.777Z,25.40
2022-10-06T06:39:55.595Z,35.05
2022-10-06T06:42:28.646Z,34.45
2022-10-06T06:45:15.579Z,27.75
2022-10-06T06:47:49.741Z,23.63
2022-10-06T06:50:36.567Z,30.58
2022-10-06T06:53:14.040Z,27.90
2022-10-06T06:56:02.609Z,26.90
2022-10-06T06:58:35.678Z,22.40
2022-10-06T07:01:25.626Z,26.15
2022-10-06T07:04:01.657Z,27.30
2022-10-06T07:07:05.614Z,25.42
2022-10-06T07:09:52.581Z,25.67
2022-10-06T07:12:25.637Z,24.88
2022-10-06T07:15:31.670Z,27.95
2022-10-06T07:18:29.838Z,23.67
2022-10-06T07:21:44.593Z,27.55
2022-10-06T07:24:49.607Z,26.40
2022-10-06T07:27:22.716Z,22.73
2022-10-06T07:30:12.588Z,26.67
2022-10-06T07:32:45.767Z,25.95
2022-10-06T07:35:32.610Z,24.42
2022-10-06T07:38:16.597Z,24.83
2022-10-06T07:41:19.333Z,25.83
2022-10-06T07:44:13.586Z,24.85
2022-10-06T07:47:08.628Z,25.33
2022-10-06T07:49:55.594Z,27.40
2022-10-06T07:52:28.900Z,24.10
2022-10-06T07:55:15.620Z,24.23
2022-10-06T07:57:51.760Z,26.85
2022-10-06T08:00:39.623Z,24.27
2022-10-06T08:03:17.004Z,25.75
2022-10-06T08:06:06.667Z,27.77
2022-10-06T08:08:40.704Z,28.83
2022-10-06T08:11:28.656Z,27.95
2022-10-06T08:14:01.689Z,26.42
2022-10-06T08:16:48.605Z,28.20
2022-10-06T08:19:28.616Z,25.17
2022-10-06T08:22:16.628Z,25.33
2022-10-06T08:25:05.342Z,26.23
2022-10-06T08:27:55.658Z,24.77
2022-10-06T08:30:35.628Z,22.40
2022-10-06T08:33:29.616Z,26.05
2022-10-06T08:36:30.963Z,23.80
2022-10-06T08:39:18.633Z,25.20
2022-10-06T08:41:56.711Z,24.70
2022-10-06T08:44:56.936Z,23.92
2022-10-06T08:47:34.045Z,21.52
2022-10-06T08:50:20.722Z,23.27
2022-10-06T08:53:02.715Z,24.73
2022-10-06T08:55:57.636Z,23.30
2022-10-06T08:58:56.632Z,24.55
2022-10-06T09:02:01.668Z,26.58
2022-10-06T09:04:48.631Z,24.30
2022-10-06T09:07:38.653Z,23.15
2022-10-06T09:10:50.668Z,25.08
2022-10-06T09:13:50.651Z,22.48
2022-10-06T09:16:28.802Z,23.25
2022-10-06T09:20:01.650Z,24.80
2022-10-06T09:22:38.785Z,22.55
2022-10-06T09:25:28.650Z,21.92
2022-10-06T09:28:03.773Z,22.23
2022-10-06T09:30:55.206Z,23.83
2022-10-06T09:33:32.121Z,20.95
2022-10-06T09:36:18.711Z,19.25
2022-10-06T09:38:55.291Z,20.90
2022-10-06T09:41:45.684Z,22.45
2022-10-06T09:44:33.894Z,22.30
2022-10-06T09:47:35.669Z,20.92
2022-10-06T09:50:12.056Z,20.83
2022-10-06T09:53:11.670Z,24.05
2022-10-06T09:55:44.790Z,20.17
2022-10-06T09:58:40.650Z,20.83
2022-10-06T10:01:15.876Z,20.48
2022-10-06T10:04:20.133Z,18.92
2022-10-06T10:06:54.785Z,19.50
2022-10-06T10:09:41.686Z,20.55
2022-10-06T10:12:31.285Z,20.80
2022-10-06T10:15:17.697Z,20.95
2022-10-06T10:17:59.754Z,21.35
2022-10-06T10:21:14.670Z,19.08
2022-10-06T10:24:05.702Z,20.08
2022-10-06T10:27:20.703Z,20.60
2022-10-06T10:30:05.695Z,18.67
2022-10-06T10:33:10.713Z,19.27
2022-10-06T10:35:54.676Z,20.98
2022-10-06T10:38:51.698Z,21.25
2022-10-06T10:41:47.712Z,19.17
2022-10-06T10:44:41.691Z,21.23
2022-10-06T10:47:44.707Z,21.05
2022-10-06T10:50:36.702Z,19.90
2022-10-06T10:53:42.759Z,19.77
2022-10-06T10:56:32.715Z,18.88
2022-10-06T10:59:21.920Z,19.73
2022-10-06T11:02:25.715Z,19.55
2022-10-06T11:05:11.749Z,19.55
2022-10-06T11:08:10.726Z,19.73
2022-10-06T11:11:08.681Z,18.48
2022-10-06T11:13:59.731Z,19.95
2022-10-06T11:16:58.705Z,19.83
2022-10-06T11:20:01.712Z,18.52
2022-10-06T11:22:57.721Z,20.50
2022-10-06T11:26:10.715Z,18.67
2022-10-06T11:29:16.888Z,18.77
2022-10-06T11:32:23.709Z,21.13
2022-10-06T11:35:34.726Z,20.48
2022-10-06T11:38:25.792Z,18.48
2022-10-06T11:41:35.718Z,19.17
2022-10-06T11:44:30.715Z,17.90
2022-10-06T11:47:45.759Z,19.88
2022-10-06T11:50:37.883Z,17.17
2022-10-06T11:53:45.720Z,18.23
2022-10-06T11:56:31.712Z,20.25
2022-10-06T11:59:30.741Z,19.38
2022-10-06T12:02:04.995Z,18.45
2022-10-06T12:05:52.359Z,17.98
2022-10-06T12:08:18.787Z,18.17
2022-10-06T12:11:05.739Z,19.60
2022-10-06T12:17:24.743Z,17.10
2022-10-06T12:20:36.740Z,18.08
2022-10-06T12:23:47.727Z,18.23
2022-10-06T12:26:36.122Z,17.75
2022-10-06T12:29:34.740Z,17.13
2022-10-06T12:32:47.825Z,16.85
2022-10-06T12:35:38.748Z,17.17
2022-10-06T12:38:37.508Z,17.92
2022-10-06T12:42:01.758Z,18.15
2022-10-06T12:44:50.743Z,20.83
2022-10-06T12:47:54.758Z,19.83
2022-10-06T12:50:50.752Z,20.25
2022-10-06T12:53:52.760Z,19.02
2022-10-06T12:56:42.770Z,17.95
2022-10-06T12:59:40.746Z,20.08
2022-10-06T13:02:30.813Z,20.95
2022-10-06T13:05:13.779Z,19.33
2022-10-06T13:08:15.759Z,19.83
2022-10-06T13:11:24.795Z,19.23
2022-10-06T13:14:19.783Z,20.23
2022-10-06T13:17:03.407Z,21.38
2022-10-06T13:19:50.762Z,21.02
2022-10-06T13:22:23.827Z,19.30
2022-10-06T13:25:10.779Z,19.23
2022-10-06T13:27:45.564Z,17.60
2022-10-06T13:30:36.233Z,20.02
2022-10-06T13:33:20.766Z,21.20
2022-10-06T13:36:09.798Z,21.50
2022-10-06T13:38:54.795Z,20.27
2022-10-06T13:41:44.768Z,21.20
2022-10-06T13:44:18.794Z,19.15
2022-10-06T13:47:09.796Z,21.20
2022-10-06T13:50:17.347Z,20.48
2022-10-06T13:53:05.781Z,19.90
2022-10-06T13:55:45.781Z,19.63
2022-10-06T13:58:42.823Z,20.63
2022-10-06T14:01:44.810Z,22.50
2022-10-06T14:04:34.701Z,21.30
2022-10-06T14:07:17.775Z,21.60
2022-10-06T14:10:11.806Z,21.13
2022-10-06T14:12:58.786Z,21.77
2022-10-06T14:15:34.945Z,21.70
2022-10-06T14:18:26.816Z,20.83
2022-10-06T14:21:01.888Z,20.77
2022-10-06T14:23:57.812Z,21.92
2022-10-06T14:26:37.536Z,21.30
2022-10-06T14:29:24.833Z,22.20
2022-10-06T14:31:57.902Z,22.40
2022-10-06T14:34:45.794Z,21.98
2022-10-06T14:37:18.881Z,27.27
2022-10-06T14:40:10.119Z,22.67
2022-10-06T14:42:51.815Z,23.83
2022-10-06T14:45:45.826Z,23.00
2022-10-06T14:48:34.838Z,23.58
2022-10-06T14:51:09.503Z,22.25
2022-10-06T14:54:00.795Z,24.38
2022-10-06T14:56:37.816Z,24.40
2022-10-06T14:59:24.822Z,22.52
2022-10-06T15:02:04.847Z,22.52
2022-10-06T15:04:51.817Z,23.02
2022-10-06T15:07:49.762Z,22.85
2022-10-06T15:10:44.827Z,23.00
2022-10-06T15:13:31.832Z,23.40
2022-10-06T15:16:12.927Z,24.80
2022-10-06T15:18:59.818Z,25.02
2022-10-06T15:21:40.870Z,25.92
2022-10-06T15:24:27.843Z,26.20
2022-10-06T15:27:24.589Z,24.50
2022-10-06T15:30:11.830Z,25.77
2022-10-06T15:32:44.893Z,27.77
2022-10-06T15:35:31.861Z,29.48
2022-10-06T15:38:05.913Z,31.70
2022-10-06T15:40:45.841Z,26.40
2022-10-06T15:43:45.886Z,29.92
2022-10-06T15:46:25.910Z,27.50
2022-10-06T15:49:12.125Z,29.55
2022-10-06T15:51:57.850Z,32.22
2022-10-06T15:54:49.845Z,28.23
2022-10-06T15:57:31.865Z,29.83
2022-10-06T16:00:11.929Z,29.17
2022-10-06T16:02:51.892Z,33.25
2022-10-06T16:05:49.149Z,30.40
2022-10-06T16:08:42.982Z,29.27
2022-10-06T16:11:36.872Z,30.20
2022-10-06T16:14:30.872Z,34.88
2022-10-06T16:17:18.847Z,30.50
2022-10-06T16:20:01.892Z,33.80
2022-10-06T16:22:55.869Z,25.98
2022-10-06T16:25:42.877Z,33.42
2022-10-06T16:28:15.976Z,35.53
2022-10-06T16:31:02.886Z,33.47
2022-10-06T16:33:35.950Z,30.30
2022-10-06T16:36:23.895Z,28.38
2022-10-06T16:38:58.925Z,27.65
2022-10-06T16:41:45.873Z,30.08
2022-10-06T16:44:18.963Z,34.83
2022-10-06T16:47:05.893Z,28.85
2022-10-06T16:49:45.877Z,36.60
2022-10-06T16:52:32.903Z,42.28
2022-10-06T16:55:05.977Z,42.92
2022-10-06T16:57:52.861Z,42.72
2022-10-06T17:00:32.930Z,40.78
2022-10-06T17:03:26.882Z,38.15
2022-10-06T17:06:26.954Z,35.95
2022-10-06T17:09:22.878Z,38.95
2022-10-06T17:12:11.019Z,42.80
2022-10-06T17:14:43.984Z,39.05
2022-10-06T17:17:30.898Z,36.13
2022-10-06T17:20:10.906Z,38.83
2022-10-06T17:22:58.922Z,33.38
2022-10-06T17:25:32.112Z,35.65
2022-10-06T17:28:18.974Z,34.75
2022-10-06T17:31:05.935Z,41.38
2022-10-06T17:33:53.884Z,75.03
2022-10-06T17:36:28.972Z,68.88
2022-10-06T17:39:18.926Z,64.50
2022-10-06T17:41:59.921Z,45.50
2022-10-06T17:44:53.984Z,56.10
2022-10-06T17:47:40.928Z,49.83
2022-10-06T17:50:14.436Z,47.33
2022-10-06T17:53:00.916Z,49.95
2022-10-06T17:55:33.965Z,43.20
2022-10-06T17:58:20.903Z,42.03
2022-10-06T18:00:55.927Z,39.15
2022-10-06T18:03:44.975Z,32.97
2022-10-06T18:06:25.906Z,37.63
2022-10-06T18:09:19.898Z,32.92
2022-10-06T18:12:08.931Z,30.55
2022-10-06T18:14:43.351Z,28.38
2022-10-06T18:17:30.931Z,30.27
2022-10-06T18:20:13.955Z,26.67
2022-10-06T18:23:00.920Z,28.38
2022-10-06T18:25:34.009Z,28.08
2022-10-06T18:28:20.915Z,31.85
2022-10-06T18:31:03.924Z,34.97
2022-10-06T18:37:13.949Z,28.10
2022-10-06T18:40:11.934Z,34.15
2022-10-06T18:43:05.943Z,30.40
2022-10-06T18:46:10.964Z,27.92
2022-10-06T18:48:55.122Z,29.58
2022-10-06T18:51:44.971Z,25.35
2022-10-06T18:54:31.932Z,26.25
2022-10-06T18:57:20.738Z,31.13
2022-10-06T18:59:57.009Z,29.38
2022-10-06T19:02:48.320Z,27.52
2022-10-06T19:05:28.953Z,31.63
2022-10-06T19:08:22.938Z,30.13
2022-10-06T19:11:36.950Z,29.08
2022-10-06T19:14:42.950Z,27.33
2022-10-06T19:17:30.931Z,31.05
2022-10-06T19:20:11.067Z,31.90
2022-10-06T19:23:04.959Z,34.20
2022-10-06T19:25:58.935Z,35.15
2022-10-06T19:28:52.951Z,34.67
2022-10-06T19:31:39.945Z,33.20
2022-10-06T19:34:22.943Z,34.97
2022-10-06T19:37:16.953Z,32.40
2022-10-06T19:40:03.945Z,37.60
2022-10-06T19:42:57.952Z,40.55
2022-10-06T19:45:45.033Z,48.55
2022-10-06T19:48:22.173Z,44.53
2022-10-06T19:51:20.944Z,48.72
2022-10-06T19:53:54.028Z,49.78
2022-10-06T19:56:40.966Z,42.85
2022-10-06T19:59:27.960Z,50.78
2022-10-06T20:02:21.962Z,49.78
2022-10-06T20:05:15.971Z,48.05
2022-10-06T20:08:10.989Z,54.88
2022-10-06T20:11:04.987Z,50.47
2022-10-06T20:13:58.992Z,52.83
2022-10-06T20:16:48.025Z,44.20
2022-10-06T20:19:21.063Z,46.25
2022-10-06T20:22:07.984Z,47.30
2022-10-06T20:24:47.972Z,43.60
2022-10-06T20:27:42.184Z,38.33
2022-10-06T20:30:28.977Z,43.28
2022-10-06T20:33:13.978Z,37.45
2022-10-06T20:36:07.985Z,34.40
2022-10-06T20:39:13.968Z,35.97
2022-10-06T20:41:55.005Z,34.90
2022-10-06T20:44:41.997Z,32.17
2022-10-06T20:47:25.990Z,38.85
2022-10-06T20:50:13.000Z,46.75
2022-10-06T20:52:53.980Z,38.47
2022-10-06T20:55:47.995Z,46.60
2022-10-06T20:58:35.994Z,49.33
2022-10-06T21:01:15.216Z,48.38
2022-10-06T21:04:02.023Z,49.80
2022-10-06T21:06:35.217Z,46.08
2022-10-06T21:09:35.023Z,43.50
2022-10-06T21:12:29.019Z,43.67
2022-10-06T21:15:19.018Z,35.15
2022-10-06T21:17:52.076Z,31.10
2022-10-06T21:20:43.034Z,29.48
2022-10-06T21:23:18.098Z,29.80
2022-10-06T21:26:08.059Z,30.55
2022-10-06T21:28:42.597Z,31.73
2022-10-06T21:31:32.045Z,30.40
2022-10-06T21:34:12.040Z,45.90
2022-10-06T21:37:06.013Z,45.40
2022-10-06T21:39:53.038Z,44.80
2022-10-06T21:42:26.098Z,45.90
2022-10-06T21:45:13.033Z,46.33
2022-10-06T21:47:46.483Z,48.53
2022-10-06T21:50:33.026Z,37.72
2022-10-06T21:53:06.113Z,41.38
2022-10-06T21:55:53.043Z,41.72
2022-10-06T21:58:33.055Z,40.53
2022-10-06T22:01:20.106Z,39.63
2022-10-06T22:03:54.135Z,39.10
2022-10-06T22:06:43.050Z,40.35
2022-10-06T22:09:27.059Z,35.40
2022-10-06T22:12:21.059Z,33.28
2022-10-06T22:15:08.045Z,44.03
2022-10-06T22:17:41.297Z,42.00
2022-10-06T22:20:28.041Z,43.17
2022-10-06T22:23:08.114Z,41.10
2022-10-06T22:25:48.069Z,39.85
2022-10-06T22:28:28.225Z,33.60
2022-10-06T22:31:10.109Z,34.13
2022-10-06T22:33:51.165Z,39.53
2022-10-06T22:36:32.053Z,32.08
2022-10-06T22:39:19.070Z,35.45
2022-10-06T22:42:06.055Z,35.90
2022-10-06T22:44:39.148Z,34.22
2022-10-06T22:47:26.079Z,35.47
2022-10-06T22:50:06.064Z,34.50
2022-10-06T22:53:00.082Z,32.00
2022-10-06T22:55:47.063Z,34.10
2022-10-06T22:58:29.089Z,34.42
2022-10-06T23:01:18.147Z,35.63
2022-10-06T23:03:59.083Z,39.35
2022-10-06T23:06:53.069Z,37.35
2022-10-06T23:09:40.099Z,35.58
2022-10-06T23:12:13.150Z,30.77
2022-10-06T23:15:00.097Z,29.80
2022-10-06T23:17:33.145Z,31.88
2022-10-06T23:20:20.099Z,27.50
2022-10-06T23:22:53.163Z,25.17
2022-10-06T23:25:44.069Z,25.50
2022-10-06T23:28:24.143Z,25.02
2022-10-06T23:31:13.150Z,23.42
2022-10-06T23:33:46.170Z,24.83
2022-10-06T23:36:33.092Z,25.40
2022-10-06T23:39:14.081Z,23.98
2022-10-06T23:42:01.077Z,25.70
2022-10-06T23:44:34.166Z,24.27
2022-10-06T23:47:21.078Z,25.15
2022-10-06T23:50:01.107Z,23.65
2022-10-06T23:52:55.098Z,23.17
2022-10-06T23:55:44.110Z,22.58
2022-10-06T23:58:17.194Z,22.27
